Time;durP1;ratioP1;P1;durP2;ratioP2;P2;SDS_P1;SDS_P2;PMS_P1;PMS_P2;Temp;Humidity;BMP_temperature;BMP_pressure;BME280_temperature;BME280_humidity;BME280_pressure;Samples;Min_cycle;Max_cycle;Signal;HPM_P1;HPM_P2
2023/06/13 00:01:04;;;;;;;2.90;2.60;;;17.20;99.90;;;;;;5117447;28;20207;-78
2023/06/13 00:03:30;;;;;;;3.13;2.60;;;17.20;99.90;;;;;;5115875;28;20171;-89
2023/06/13 00:06:01;;;;;;;3.50;2.80;;;17.10;99.90;;;;;;5115521;28;20623;-78
2023/06/13 00:08:31;;;;;;;3.70;3.37;;;17.10;99.90;;;;;;5116696;28;20405;-91
2023/06/13 00:10:58;;;;;;;6.13;2.40;;;17.00;99.90;;;;;;5116598;28;20483;-78
2023/06/13 00:13:25;;;;;;;5.27;3.60;;;17.00;99.90;;;;;;5115239;28;20503;-78
2023/06/13 00:15:56;;;;;;;3.80;2.83;;;17.00;99.90;;;;;;5116881;28;20431;-78
2023/06/13 00:18:22;;;;;;;4.33;2.90;;;16.90;99.90;;;;;;5116317;28;20478;-78
2023/06/13 00:20:50;;;;;;;2.73;2.53;;;16.90;99.90;;;;;;5115580;28;20845;-79
2023/06/13 00:23:16;;;;;;;2.83;2.47;;;16.80;99.90;;;;;;5115509;28;20415;-90
2023/06/13 00:25:42;;;;;;;4.83;3.53;;;16.80;99.90;;;;;;5115726;28;22689;-89
2023/06/13 00:28:08;;;;;;;3.33;3.03;;;16.70;99.90;;;;;;5116057;28;20404;-82
2023/06/13 00:30:34;;;;;;;3.20;2.90;;;16.70;99.90;;;;;;5116284;28;20211;-79
2023/06/13 00:32:59;;;;;;;3.80;2.80;;;16.60;99.90;;;;;;5114960;28;20419;-85
2023/06/13 00:35:25;;;;;;;3.03;2.73;;;16.60;99.90;;;;;;5114604;28;20691;-78
2023/06/13 00:37:56;;;;;;;4.60;3.20;;;16.60;99.90;;;;;;5114293;28;20191;-80
2023/06/13 00:40:23;;;;;;;3.00;2.70;;;16.60;99.90;;;;;;5114179;28;20444;-78
2023/06/13 00:42:52;;;;;;;5.10;3.40;;;16.50;99.90;;;;;;5114656;28;20422;-89
2023/06/13 00:45:26;;;;;;;6.23;2.80;;;16.40;99.90;;;;;;5115972;28;20969;-90
2023/06/13 00:48:02;;;;;;;4.63;2.90;;;16.40;99.90;;;;;;5114655;28;20416;-78
2023/06/13 00:50:33;;;;;;;3.07;2.77;;;16.40;99.90;;;;;;5115474;28;20607;-90
2023/06/13 00:53:08;;;;;;;3.30;2.90;;;16.30;99.90;;;;;;5114542;28;20411;-78
2023/06/13 00:55:34;;;;;;;3.60;3.03;;;16.30;99.90;;;;;;5114752;28;20493;-78
2023/06/13 00:58:06;;;;;;;4.73;2.93;;;16.20;99.90;;;;;;5114317;27;20415;-89
2023/06/13 01:00:33;;;;;;;3.33;3.03;;;16.20;99.90;;;;;;5115553;28;20434;-90
2023/06/13 01:02:59;;;;;;;5.33;3.07;;;16.20;99.90;;;;;;5115547;28;20400;-89
2023/06/13 01:05:28;;;;;;;5.10;3.80;;;16.10;99.90;;;;;;5115436;28;20510;-90
2023/06/13 01:07:57;;;;;;;3.27;2.97;;;16.10;99.90;;;;;;5114387;28;20493;-90
2023/06/13 01:10:25;;;;;;;4.30;3.30;;;16.00;99.90;;;;;;5114290;28;20479;-78
2023/06/13 01:13:00;;;;;;;3.90;3.13;;;16.00;99.90;;;;;;5113917;28;20821;-78
2023/06/13 01:15:31;;;;;;;3.10;2.80;;;16.00;99.90;;;;;;5115359;28;20416;-90
2023/06/13 01:18:00;;;;;;;4.90;3.50;;;15.90;99.90;;;;;;5114322;28;20462;-78
2023/06/13 01:20:32;;;;;;;2.80;2.60;;;15.90;99.90;;;;;;5115104;28;20967;-78
2023/06/13 01:23:14;;;;;;;10.90;3.23;;;15.90;99.90;;;;;;5113881;28;20969;-78
2023/06/13 01:25:57;;;;;;;3.50;3.20;;;15.80;99.90;;;;;;5113652;28;20480;-90
2023/06/13 01:28:24;;;;;;;4.47;3.33;;;15.80;99.90;;;;;;5115139;28;20400;-89
2023/06/13 01:30:51;;;;;;;3.63;3.20;;;15.70;99.90;;;;;;5113479;28;20478;-90
2023/06/13 01:33:19;;;;;;;3.27;2.90;;;15.70;99.90;;;;;;5113700;28;20408;-78
2023/06/13 01:35:46;;;;;;;3.87;3.37;;;15.70;99.90;;;;;;5113482;28;20454;-78
2023/06/13 01:38:12;;;;;;;4.20;3.63;;;15.60;99.90;;;;;;5114912;28;20929;-78
2023/06/13 01:40:38;;;;;;;5.80;3.70;;;15.60;99.90;;;;;;5113632;28;20444;-78
2023/06/13 01:43:04;;;;;;;3.10;2.80;;;15.60;99.90;;;;;;5114938;28;20793;-78
2023/06/13 01:45:29;;;;;;;5.80;3.57;;;15.50;99.90;;;;;;5114826;28;20187;-90
2023/06/13 01:48:09;;;;;;;4.30;3.90;;;15.50;99.90;;;;;;5114658;28;20668;-78
2023/06/13 01:50:49;;;;;;;3.53;3.07;;;15.50;99.90;;;;;;5114720;28;20988;-89
2023/06/13 01:53:39;;;;;;;3.97;3.60;;;15.50;99.90;;;;;;5113833;28;20427;-89
2023/06/13 01:56:12;;;;;;;3.80;3.23;;;15.40;99.90;;;;;;5114717;28;20460;-78
2023/06/13 01:58:56;;;;;;;4.50;3.80;;;15.30;99.90;;;;;;5114826;28;20899;-78
2023/06/13 02:01:24;;;;;;;4.83;3.43;;;15.40;99.90;;;;;;5113298;28;20439;-89
2023/06/13 02:03:50;;;;;;;4.77;3.33;;;15.30;99.90;;;;;;5113274;28;20427;-89
2023/06/13 02:06:17;;;;;;;4.30;3.90;;;15.20;99.90;;;;;;5114651;28;20492;-91
2023/06/13 02:08:44;;;;;;;3.70;3.30;;;15.20;99.90;;;;;;5113338;28;20424;-89
2023/06/13 02:11:10;;;;;;;4.47;4.07;;;15.10;99.90;;;;;;5112972;28;20531;-88
2023/06/13 02:13:36;;;;;;;3.90;3.50;;;15.10;99.90;;;;;;5114560;28;20900;-79
2023/06/13 02:16:02;;;;;;;4.30;3.60;;;15.10;99.90;;;;;;5113183;28;21060;-89
2023/06/13 02:18:28;;;;;;;3.87;3.20;;;15.10;99.90;;;;;;5114406;28;20403;-78
2023/06/13 02:20:54;;;;;;;5.60;3.90;;;15.10;99.90;;;;;;5115032;28;20252;-88
2023/06/13 02:23:20;;;;;;;3.70;3.40;;;15.10;99.90;;;;;;5114629;28;20168;-78
2023/06/13 02:25:46;;;;;;;5.07;3.70;;;15.00;99.90;;;;;;5114655;28;20566;-90
2023/06/13 02:28:13;;;;;;;3.83;3.53;;;14.90;99.90;;;;;;5114374;28;20901;-78
2023/06/13 02:30:38;;;;;;;3.80;3.40;;;14.90;99.90;;;;;;5114128;28;20468;-78
2023/06/13 02:33:04;;;;;;;7.10;4.50;;;14.90;99.90;;;;;;5113983;28;20399;-87
2023/06/13 02:35:30;;;;;;;4.13;3.57;;;14.90;99.90;;;;;;5112924;28;20227;-78
2023/06/13 02:37:56;;;;;;;3.80;3.30;;;14.90;99.90;;;;;;5112978;28;20934;-88
2023/06/13 02:40:24;;;;;;;4.03;3.73;;;14.90;99.90;;;;;;5112923;28;20324;-89
2023/06/13 02:42:54;;;;;;;3.80;3.47;;;14.80;99.90;;;;;;5113029;28;20947;-78
2023/06/13 02:45:20;;;;;;;5.10;3.73;;;14.80;99.90;;;;;;5113019;28;20440;-78
2023/06/13 02:47:46;;;;;;;4.93;4.30;;;14.70;99.90;;;;;;5114734;28;20423;-87
2023/06/13 02:50:11;;;;;;;4.83;3.90;;;14.70;99.90;;;;;;5113928;28;20294;-85
2023/06/13 02:52:37;;;;;;;4.07;3.73;;;14.70;99.90;;;;;;5112812;28;20187;-77
2023/06/13 02:55:08;;;;;;;4.87;3.90;;;14.70;99.90;;;;;;5112705;28;20283;-90
2023/06/13 02:57:36;;;;;;;5.53;4.07;;;14.70;99.90;;;;;;5113304;28;20653;-78
2023/06/13 03:00:06;;;;;;;5.97;3.50;;;14.70;99.90;;;;;;5112644;28;20531;-89
2023/06/13 03:02:32;;;;;;;7.00;3.40;;;14.60;99.90;;;;;;5114983;28;20423;-89
2023/06/13 03:04:58;;;;;;;4.40;4.00;;;14.60;99.90;;;;;;5117982;27;20772;-78
2023/06/13 03:07:23;;;;;;;6.53;3.93;;;14.60;99.90;;;;;;5116810;28;20175;-89
2023/06/13 03:09:49;;;;;;;5.57;4.40;;;14.50;99.90;;;;;;5116337;28;20258;-78
2023/06/13 03:12:15;;;;;;;6.43;3.70;;;14.50;99.90;;;;;;5118201;28;20504;-90
2023/06/13 03:14:41;;;;;;;4.07;3.73;;;14.60;99.90;;;;;;5117811;28;20172;-90
2023/06/13 03:17:07;;;;;;;4.40;4.00;;;14.70;99.90;;;;;;5118106;28;20187;-90
2023/06/13 03:19:33;;;;;;;4.20;3.80;;;14.80;99.90;;;;;;5116646;28;20451;-77
2023/06/13 03:21:58;;;;;;;4.73;3.80;;;15.00;99.90;;;;;;5116324;28;20455;-78
2023/06/13 03:24:24;;;;;;;5.77;4.20;;;15.10;99.90;;;;;;5115994;28;20216;-78
2023/06/13 03:26:49;;;;;;;5.60;4.10;;;15.20;99.90;;;;;;5117643;28;20703;-89
2023/06/13 03:29:15;;;;;;;5.87;3.90;;;15.30;99.90;;;;;;5117360;27;20211;-77
2023/06/13 03:31:41;;;;;;;4.67;4.17;;;15.40;99.90;;;;;;5117183;28;20196;-89
2023/06/13 03:34:06;;;;;;;4.63;4.10;;;15.50;99.90;;;;;;5117252;28;20182;-77
2023/06/13 03:36:37;;;;;;;4.03;3.50;;;15.60;99.90;;;;;;5115906;28;20207;-89
2023/06/13 03:39:03;;;;;;;7.30;3.70;;;15.70;99.90;;;;;;5115887;28;20168;-77
2023/06/13 03:41:28;;;;;;;5.30;4.37;;;15.80;99.90;;;;;;5117478;28;20436;-89
2023/06/13 03:43:54;;;;;;;5.13;4.20;;;15.90;99.90;;;;;;5117108;28;20644;-81
2023/06/13 03:46:20;;;;;;;4.37;3.93;;;15.90;99.90;;;;;;5115871;28;20323;-78
2023/06/13 03:48:46;;;;;;;4.80;4.07;;;15.90;99.90;;;;;;5115562;28;20466;-86
2023/06/13 03:51:12;;;;;;;5.80;3.60;;;15.90;99.90;;;;;;5115706;28;20214;-88
2023/06/13 03:53:38;;;;;;;4.30;3.90;;;15.90;99.90;;;;;;5116920;27;20428;-83
2023/06/13 03:56:06;;;;;;;5.03;4.03;;;15.90;99.90;;;;;;5116976;28;20206;-78
2023/06/13 03:58:32;;;;;;;4.43;3.90;;;15.90;99.90;;;;;;5115819;28;20434;-78
2023/06/13 04:00:58;;;;;;;151.80;74.77;;;15.90;99.90;;;;;;5115476;27;20440;-89
2023/06/13 04:03:24;;;;;;;6.10;5.00;;;16.00;99.90;;;;;;5115534;28;20954;-85
2023/06/13 04:05:50;;;;;;;4.40;3.63;;;16.10;99.90;;;;;;5115312;27;20455;-77
2023/06/13 04:08:17;;;;;;;5.60;4.50;;;16.10;99.90;;;;;;5115449;28;20176;-78
2023/06/13 04:10:42;;;;;;;6.10;4.70;;;16.10;99.90;;;;;;5115117;28;20278;-77
2023/06/13 04:13:08;;;;;;;6.60;4.33;;;16.10;99.90;;;;;;5116127;27;20422;-85
2023/06/13 04:15:33;;;;;;;6.47;4.57;;;16.30;99.90;;;;;;5115137;28;20247;-89
2023/06/13 04:17:59;;;;;;;5.33;4.00;;;16.30;99.90;;;;;;5116457;28;20562;-78
2023/06/13 04:20:25;;;;;;;5.80;4.20;;;16.40;99.90;;;;;;5114951;28;20203;-78
2023/06/13 04:22:52;;;;;;;4.07;3.67;;;16.50;99.90;;;;;;5115085;28;20175;-88
2023/06/13 04:25:17;;;;;;;5.33;4.13;;;16.60;99.90;;;;;;5115058;28;20476;-90
2023/06/13 04:27:48;;;;;;;4.30;3.90;;;16.70;99.90;;;;;;5115180;28;20473;-90
2023/06/13 04:30:14;;;;;;;4.57;4.17;;;16.90;99.90;;;;;;5114745;28;20577;-91
2023/06/13 04:32:43;;;;;;;4.70;4.30;;;17.00;99.90;;;;;;5113581;28;20788;-87
2023/06/13 04:35:16;;;;;;;5.20;4.23;;;17.10;99.90;;;;;;5112939;28;20451;-86
2023/06/13 04:37:45;;;;;;;6.20;4.30;;;17.20;99.90;;;;;;5113807;28;20440;-77
2023/06/13 04:40:13;;;;;;;4.70;4.00;;;17.20;99.90;;;;;;5113670;28;20786;-77
2023/06/13 04:42:38;;;;;;;11.23;4.40;;;17.30;99.90;;;;;;5114721;28;20496;-79
2023/06/13 04:45:05;;;;;;;4.83;3.83;;;17.40;99.90;;;;;;5115791;28;20427;-77
2023/06/13 04:47:31;;;;;;;4.57;3.87;;;17.30;99.90;;;;;;5114790;28;20228;-77
2023/06/13 04:50:00;;;;;;;5.00;4.50;;;17.40;99.90;;;;;;5114180;28;20838;-85
2023/06/13 04:52:32;;;;;;;13.80;8.53;;;17.50;99.90;;;;;;5114079;28;20471;-77
2023/06/13 04:55:00;;;;;;;5.83;5.07;;;17.60;99.90;;;;;;5104391;28;20967;-86
2023/06/13 04:57:27;;;;;;;5.60;4.30;;;17.60;99.90;;;;;;5104319;28;20456;-78
2023/06/13 04:59:54;;;;;;;3.47;3.17;;;17.70;99.90;;;;;;5101502;28;20936;-83
2023/06/13 05:02:20;;;;;;;5.23;3.77;;;17.60;99.90;;;;;;5099602;28;20441;-78
2023/06/13 05:04:47;;;;;;;3.93;3.53;;;17.80;99.90;;;;;;5104049;28;20448;-78
2023/06/13 05:07:14;;;;;;;5.30;4.10;;;17.80;99.90;;;;;;5104409;28;20645;-78
2023/06/13 05:09:43;;;;;;;4.13;3.43;;;17.80;99.90;;;;;;5106700;28;20900;-78
2023/06/13 05:12:10;;;;;;;4.30;3.90;;;17.80;99.90;;;;;;5103161;28;20440;-84
2023/06/13 05:14:39;;;;;;;4.97;3.97;;;18.00;99.90;;;;;;5098177;28;20466;-78
2023/06/13 05:17:09;;;;;;;4.70;4.30;;;18.10;99.90;;;;;;5105578;28;20477;-78
2023/06/13 05:19:35;;;;;;;6.13;4.27;;;18.10;99.90;;;;;;5098177;28;20444;-83
2023/06/13 05:22:08;;;;;;;3.70;3.40;;;18.20;99.90;;;;;;5102555;28;20549;-83
2023/06/13 05:24:33;;;;;;;5.37;4.10;;;18.30;99.90;;;;;;5106269;28;20982;-78
2023/06/13 05:26:59;;;;;;;5.23;3.77;;;18.30;99.90;;;;;;5097733;28;20440;-79
2023/06/13 05:29:26;;;;;;;4.23;3.50;;;18.40;99.90;;;;;;5111601;28;20219;-79
2023/06/13 05:31:53;;;;;;;5.07;4.20;;;18.40;99.90;;;;;;5099688;28;20444;-82
2023/06/13 05:34:20;;;;;;;4.57;3.97;;;18.40;99.90;;;;;;5110155;28;20757;-78
2023/06/13 05:36:46;;;;;;;4.00;3.30;;;18.50;99.90;;;;;;5114556;28;20439;-83
2023/06/13 05:39:12;;;;;;;5.10;3.60;;;18.60;99.90;;;;;;5112345;28;21244;-78
2023/06/13 05:41:39;;;;;;;5.63;3.50;;;18.60;99.90;;;;;;5110694;28;20549;-83
2023/06/13 05:44:05;;;;;;;4.60;3.50;;;18.60;99.90;;;;;;5112912;28;20511;-82
2023/06/13 05:46:31;;;;;;;7.80;2.87;;;18.60;99.90;;;;;;5105347;28;20475;-82
2023/06/13 05:48:57;;;;;;;4.07;3.53;;;18.80;99.90;;;;;;5094854;28;20810;-78
2023/06/13 05:51:24;;;;;;;5.37;3.87;;;18.80;99.90;;;;;;5094240;28;20299;-79
2023/06/13 05:53:50;;;;;;;6.13;3.90;;;18.80;99.90;;;;;;5101377;28;20905;-80
2023/06/13 05:56:16;;;;;;;4.10;3.70;;;18.90;99.90;;;;;;5107602;28;20481;-78
2023/06/13 05:58:42;;;;;;;7.03;3.80;;;18.90;99.90;;;;;;5111952;28;20566;-79
2023/06/13 06:01:10;;;;;;;4.00;3.60;;;19.00;99.90;;;;;;5102536;28;20500;-79
2023/06/13 06:03:36;;;;;;;4.20;3.80;;;19.00;99.90;;;;;;5099742;28;20430;-82
2023/06/13 06:06:01;;;;;;;3.70;3.30;;;19.10;99.90;;;;;;5105621;28;21215;-78
2023/06/13 06:08:28;;;;;;;5.30;4.07;;;19.10;99.90;;;;;;5100542;28;20424;-80
2023/06/13 06:10:53;;;;;;;4.40;3.80;;;19.10;99.90;;;;;;5105659;28;20229;-83
2023/06/13 06:13:19;;;;;;;4.80;2.90;;;19.20;99.90;;;;;;5113648;28;20927;-84
2023/06/13 06:15:45;;;;;;;5.33;3.43;;;19.10;99.90;;;;;;5112271;28;20300;-79
2023/06/13 06:18:11;;;;;;;4.47;3.50;;;19.10;99.90;;;;;;5109870;28;20502;-84
2023/06/13 06:20:37;;;;;;;3.50;3.17;;;19.10;99.90;;;;;;5098609;28;21123;-80
2023/06/13 06:23:02;;;;;;;3.23;3.00;;;19.10;99.90;;;;;;5109412;28;20191;-85
2023/06/13 06:25:28;;;;;;;4.40;3.37;;;19.20;99.90;;;;;;5113052;28;20251;-79
2023/06/13 06:27:55;;;;;;;4.50;3.40;;;19.20;99.90;;;;;;5109832;28;20200;-80
2023/06/13 06:30:21;;;;;;;6.23;3.30;;;19.30;99.90;;;;;;5111539;28;20227;-79
2023/06/13 06:32:47;;;;;;;3.70;3.40;;;19.30;99.90;;;;;;5111842;28;20505;-79
2023/06/13 06:35:16;;;;;;;4.00;3.57;;;19.40;99.90;;;;;;5100742;28;20190;-86
2023/06/13 06:37:45;;;;;;;3.30;3.00;;;19.40;99.90;;;;;;5109534;28;20511;-86
2023/06/13 06:40:11;;;;;;;3.40;3.10;;;19.50;99.90;;;;;;5110656;28;21220;-79
2023/06/13 06:42:37;;;;;;;3.03;2.73;;;19.50;99.90;;;;;;5113393;28;20459;-81
2023/06/13 06:45:03;;;;;;;3.20;2.90;;;19.50;99.90;;;;;;5112927;28;20868;-80
2023/06/13 06:47:28;;;;;;;3.90;3.00;;;19.50;99.90;;;;;;5110542;28;20218;-80
2023/06/13 06:49:54;;;;;;;4.00;3.20;;;19.60;99.90;;;;;;5113457;28;20506;-80
2023/06/13 06:52:20;;;;;;;3.37;3.13;;;19.70;99.90;;;;;;5110973;28;20183;-80
2023/06/13 06:54:45;;;;;;;4.27;3.60;;;19.70;99.90;;;;;;5110577;28;21970;-80
2023/06/13 06:57:12;;;;;;;12.10;8.03;;;19.80;99.90;;;;;;5113133;28;20207;-83
2023/06/13 06:59:37;;;;;;;8.93;4.80;;;19.70;99.90;;;;;;5113526;28;20680;-80
2023/06/13 07:02:03;;;;;;;4.03;2.90;;;19.80;99.90;;;;;;5111180;28;20469;-80
2023/06/13 07:04:29;;;;;;;3.77;2.97;;;19.80;99.90;;;;;;5112586;28;20195;-84
2023/06/13 07:06:55;;;;;;;3.60;3.03;;;19.80;99.90;;;;;;5114072;28;20917;-84
2023/06/13 07:09:21;;;;;;;3.43;3.13;;;19.90;99.90;;;;;;5108061;28;20298;-83
2023/06/13 07:11:46;;;;;;;4.53;3.40;;;19.90;99.90;;;;;;5113061;28;20215;-84
2023/06/13 07:14:12;;;;;;;3.53;3.23;;;19.90;99.90;;;;;;5107274;28;20178;-81
2023/06/13 07:16:38;;;;;;;2.97;2.77;;;20.00;99.90;;;;;;5102142;28;20463;-80
2023/06/13 07:19:03;;;;;;;3.67;2.83;;;20.10;99.90;;;;;;5094712;28;20199;-82
2023/06/13 07:21:29;;;;;;;2.87;2.67;;;20.10;99.90;;;;;;5099932;28;20684;-84
2023/06/13 07:23:57;;;;;;;3.27;2.80;;;20.10;99.90;;;;;;5114371;28;20220;-80
2023/06/13 07:26:22;;;;;;;5.47;2.87;;;20.10;99.90;;;;;;5112130;28;20284;-80
2023/06/13 07:28:48;;;;;;;4.73;2.97;;;20.10;99.90;;;;;;5105038;28;20511;-84
2023/06/13 07:31:13;;;;;;;5.50;2.87;;;20.20;99.90;;;;;;5110570;28;20712;-80
2023/06/13 07:33:39;;;;;;;4.07;3.53;;;20.20;99.90;;;;;;5107914;28;20180;-83
2023/06/13 07:36:06;;;;;;;7.30;2.97;;;20.30;99.90;;;;;;5103151;28;20586;-84
2023/06/13 07:38:31;;;;;;;5.10;3.47;;;20.30;99.90;;;;;;5092242;28;20191;-85
2023/06/13 07:40:57;;;;;;;3.00;2.70;;;20.30;99.90;;;;;;5106434;28;20471;-80
2023/06/13 07:43:23;;;;;;;3.00;2.80;;;20.40;99.90;;;;;;5108628;28;20194;-81
2023/06/13 07:45:49;;;;;;;3.73;2.63;;;20.40;99.90;;;;;;5111438;28;20211;-80
2023/06/13 07:48:15;;;;;;;2.83;2.63;;;20.40;99.90;;;;;;5104138;28;20178;-81
2023/06/13 07:50:42;;;;;;;3.13;2.83;;;20.50;99.90;;;;;;5100874;28;20539;-81
2023/06/13 07:53:09;;;;;;;3.77;2.90;;;20.50;99.90;;;;;;5108130;28;20426;-84
2023/06/13 07:55:34;;;;;;;2.90;2.70;;;20.50;99.90;;;;;;5105380;28;20431;-81
2023/06/13 07:58:00;;;;;;;3.83;2.80;;;20.60;99.90;;;;;;5102035;28;20412;-83
2023/06/13 08:00:26;;;;;;;2.97;2.73;;;20.60;99.90;;;;;;5099298;28;20660;-84
2023/06/13 08:02:52;;;;;;;2.63;2.43;;;20.70;99.90;;;;;;5099088;28;20184;-84
2023/06/13 08:05:17;;;;;;;3.03;2.73;;;20.70;99.90;;;;;;5095749;28;20437;-81
2023/06/13 08:07:43;;;;;;;3.17;2.50;;;20.80;99.90;;;;;;5094665;28;20185;-81
2023/06/13 08:10:09;;;;;;;96.00;68.03;;;20.80;99.90;;;;;;5100403;28;20219;-85
2023/06/13 08:12:35;;;;;;;3.10;2.37;;;20.90;99.90;;;;;;5102045;28;20191;-88
2023/06/13 08:15:01;;;;;;;4.50;2.57;;;20.90;99.90;;;;;;5098789;28;20199;-75
2023/06/13 08:17:26;;;;;;;2.63;2.43;;;21.00;99.90;;;;;;5107616;28;20203;-75
2023/06/13 08:19:52;;;;;;;2.80;2.53;;;21.00;99.90;;;;;;5103154;28;20496;-75
2023/06/13 08:22:18;;;;;;;2.73;2.47;;;21.10;99.90;;;;;;5112022;28;20232;-77
2023/06/13 08:24:45;;;;;;;2.93;2.30;;;21.10;99.90;;;;;;5108088;28;20515;-78
2023/06/13 08:27:14;;;;;;;6.53;2.70;;;21.10;99.90;;;;;;5101679;28;20514;-75
2023/06/13 08:29:41;;;;;;;2.00;1.90;;;21.20;99.90;;;;;;5108241;28;20570;-78
2023/06/13 08:32:07;;;;;;;3.00;2.60;;;21.10;99.90;;;;;;5096229;28;20983;-76
2023/06/13 08:34:33;;;;;;;2.87;2.67;;;21.10;99.90;;;;;;5096674;28;20420;-75
2023/06/13 08:36:59;;;;;;;3.07;2.47;;;21.00;99.90;;;;;;5094287;28;20953;-78
2023/06/13 08:39:24;;;;;;;2.90;2.57;;;21.00;99.90;;;;;;5099395;28;20418;-75
2023/06/13 08:41:52;;;;;;;4.73;2.63;;;21.10;99.90;;;;;;5098562;28;20212;-75
2023/06/13 08:44:17;;;;;;;2.93;2.63;;;21.20;99.90;;;;;;5086687;28;20180;-75
2023/06/13 08:46:43;;;;;;;2.40;2.20;;;21.20;99.90;;;;;;5104707;28;20834;-76
2023/06/13 08:49:09;;;;;;;2.73;2.53;;;21.20;99.90;;;;;;5094865;28;20168;-76
2023/06/13 08:51:37;;;;;;;3.60;2.33;;;21.30;99.90;;;;;;5108787;28;20206;-78
2023/06/13 08:54:04;;;;;;;5.10;2.50;;;21.30;99.90;;;;;;5107196;28;20428;-75
2023/06/13 08:56:37;;;;;;;2.87;2.67;;;21.40;99.90;;;;;;5102302;28;20495;-75
2023/06/13 08:59:08;;;;;;;2.43;2.23;;;21.50;99.90;;;;;;5109467;28;20497;-75
2023/06/13 09:01:38;;;;;;;2.77;2.53;;;21.50;99.90;;;;;;5097527;28;20465;-75
2023/06/13 09:04:09;;;;;;;2.60;2.23;;;21.50;99.90;;;;;;5099045;28;20408;-75
2023/06/13 09:06:37;;;;;;;3.20;2.43;;;21.60;99.90;;;;;;5103996;28;20452;-75
2023/06/13 09:09:07;;;;;;;2.63;2.30;;;21.70;99.90;;;;;;5102060;28;20423;-75
2023/06/13 09:11:36;;;;;;;2.60;2.37;;;21.60;99.90;;;;;;5105011;28;20456;-77
2023/06/13 09:14:04;;;;;;;3.00;2.60;;;21.50;99.90;;;;;;5093426;28;20841;-76
2023/06/13 09:16:30;;;;;;;4.10;2.87;;;21.50;99.90;;;;;;5090391;28;20484;-78
2023/06/13 09:18:57;;;;;;;3.30;2.87;;;21.70;99.90;;;;;;5089517;28;20513;-78
2023/06/13 09:21:24;;;;;;;3.00;2.40;;;21.80;99.90;;;;;;5102037;28;20452;-76
2023/06/13 09:23:49;;;;;;;2.10;1.90;;;21.70;99.90;;;;;;5100258;28;20436;-76
2023/06/13 09:26:18;;;;;;;1.93;1.83;;;21.70;99.90;;;;;;5104779;28;20471;-75
2023/06/13 09:28:47;;;;;;;3.90;2.43;;;21.80;99.90;;;;;;5093079;28;20641;-78
2023/06/13 09:31:13;;;;;;;2.80;2.57;;;21.70;99.90;;;;;;5092828;28;20484;-78
2023/06/13 09:33:40;;;;;;;3.00;2.33;;;21.70;99.90;;;;;;5088693;28;20415;-78
2023/06/13 09:36:07;;;;;;;4.03;2.10;;;21.70;99.90;;;;;;5094826;28;20874;-75
2023/06/13 09:38:41;;;;;;;7.73;2.73;;;21.80;99.90;;;;;;5099403;28;20813;-77
2023/06/13 09:41:13;;;;;;;2.80;2.20;;;22.00;99.90;;;;;;5097590;28;20460;-78
2023/06/13 09:43:40;;;;;;;2.40;2.13;;;22.10;99.90;;;;;;5101257;28;20818;-76
2023/06/13 09:46:10;;;;;;;2.37;2.17;;;22.00;99.90;;;;;;5101826;28;20456;-77
2023/06/13 09:48:36;;;;;;;3.33;2.30;;;22.00;99.90;;;;;;5092247;28;20447;-77
2023/06/13 09:51:09;;;;;;;113.93;86.10;;;22.00;99.90;;;;;;5106815;28;21016;-76
2023/06/13 09:53:35;;;;;;;4.00;3.60;;;22.10;99.90;;;;;;5099315;28;20180;-78
2023/06/13 09:56:00;;;;;;;2.83;2.20;;;22.30;99.90;;;;;;5105212;28;20798;-78
2023/06/13 09:58:28;;;;;;;3.53;2.67;;;22.30;99.90;;;;;;5095853;28;20858;-78
2023/06/13 10:00:59;;;;;;;1.97;1.87;;;22.20;99.90;;;;;;5098028;28;20215;-77
2023/06/13 10:03:29;;;;;;;2.53;2.33;;;22.10;99.90;;;;;;5090455;28;20947;-78
2023/06/13 10:05:57;;;;;;;3.73;3.10;;;22.10;99.90;;;;;;5095868;28;20448;-78
2023/06/13 10:08:24;;;;;;;3.07;2.53;;;22.20;99.90;;;;;;5103484;28;21247;-78
2023/06/13 10:10:50;;;;;;;3.57;2.17;;;22.20;99.90;;;;;;5097855;28;20480;-78
2023/06/13 10:13:21;;;;;;;3.20;2.90;;;22.20;99.90;;;;;;5105014;28;20461;-78
2023/06/13 10:15:55;;;;;;;2.37;2.17;;;22.30;99.90;;;;;;5103664;28;20196;-78
2023/06/13 10:18:24;;;;;;;4.53;2.20;;;22.40;99.90;;;;;;5094140;28;20451;-76
2023/06/13 10:20:51;;;;;;;2.97;2.50;;;22.30;99.90;;;;;;5098691;28;20460;-77
2023/06/13 10:23:21;;;;;;;3.87;2.27;;;22.40;99.90;;;;;;5102080;28;20965;-77
2023/06/13 10:25:51;;;;;;;2.33;2.23;;;22.30;99.90;;;;;;5093529;28;20486;-77
2023/06/13 10:28:31;;;;;;;4.43;2.63;;;22.40;99.90;;;;;;5106463;28;20430;-76
2023/06/13 10:31:35;;;;;;;2.77;2.40;;;22.60;99.90;;;;;;5097678;28;20511;-78
2023/06/13 10:34:42;;;;;;;2.30;2.20;;;22.80;99.90;;;;;;5093162;28;20429;-78
2023/06/13 10:37:37;;;;;;;5.30;2.80;;;23.00;99.90;;;;;;5102534;28;20424;-77
2023/06/13 10:40:04;;;;;;;2.20;2.10;;;23.10;99.90;;;;;;5098865;28;20512;-77
2023/06/13 10:42:40;;;;;;;2.53;2.10;;;23.20;99.90;;;;;;5101830;28;20443;-78
2023/06/13 10:45:13;;;;;;;3.00;2.53;;;23.30;99.90;;;;;;5093249;28;20525;-78
2023/06/13 10:47:38;;;;;;;2.87;2.40;;;23.40;99.90;;;;;;5100743;28;20939;-78
2023/06/13 10:50:06;;;;;;;3.90;3.23;;;23.40;99.90;;;;;;5095754;28;20475;-76
2023/06/13 10:52:31;;;;;;;3.73;2.73;;;23.40;99.90;;;;;;5096190;28;20559;-78
2023/06/13 10:54:59;;;;;;;2.93;2.67;;;23.10;99.90;;;;;;5098264;28;20528;-77
2023/06/13 10:58:02;;;;;;;2.73;2.53;;;23.00;99.90;;;;;;5094431;28;20180;-78
2023/06/13 11:00:34;;;;;;;2.50;2.30;;;23.20;99.90;;;;;;5097669;28;20441;-77
2023/06/13 11:03:07;;;;;;;2.63;2.43;;;23.30;99.90;;;;;;5098769;28;20431;-78
2023/06/13 11:05:37;;;;;;;8.63;2.33;;;23.40;99.90;;;;;;5099019;28;20462;-77
2023/06/13 11:08:15;;;;;;;4.20;2.40;;;23.50;99.90;;;;;;5096268;28;20515;-78
2023/06/13 11:10:46;;;;;;;3.50;2.57;;;23.60;99.90;;;;;;5095842;28;20506;-78
2023/06/13 11:13:22;;;;;;;3.73;2.70;;;23.70;99.90;;;;;;5095849;28;20430;-78
2023/06/13 11:15:56;;;;;;;3.40;2.50;;;23.80;99.90;;;;;;5100517;28;20482;-78
2023/06/13 11:18:21;;;;;;;3.47;2.30;;;23.80;99.90;;;;;;5100797;28;20468;-76
2023/06/13 11:20:52;;;;;;;5.60;2.50;;;23.80;99.90;;;;;;5100695;28;20850;-77
2023/06/13 11:23:33;;;;;;;2.50;2.23;;;23.80;99.90;;;;;;5104634;28;20175;-78
2023/06/13 11:25:59;;;;;;;4.70;2.53;;;23.60;99.90;;;;;;5094570;28;20589;-78
2023/06/13 11:28:25;;;;;;;3.10;2.40;;;23.70;99.90;;;;;;5100027;28;20835;-78
2023/06/13 11:30:52;;;;;;;2.60;2.40;;;23.80;99.90;;;;;;5097891;28;21217;-78
2023/06/13 11:33:19;;;;;;;7.40;2.87;;;23.90;99.90;;;;;;5097764;28;20412;-78
2023/06/13 11:35:56;;;;;;;3.40;3.00;;;24.00;99.90;;;;;;5102713;28;20471;-78
2023/06/13 11:38:36;;;;;;;3.43;2.57;;;24.10;99.90;;;;;;5101765;28;20435;-76
2023/06/13 11:41:02;;;;;;;5.63;2.63;;;24.10;99.90;;;;;;5105607;28;20835;-77
2023/06/13 11:43:28;;;;;;;3.87;2.80;;;24.20;99.90;;;;;;5095862;28;20474;-77
2023/06/13 11:45:59;;;;;;;2.50;2.30;;;24.20;99.90;;;;;;5102833;28;20838;-76
2023/06/13 11:48:26;;;;;;;2.60;2.40;;;24.30;98.90;;;;;;5101014;28;20970;-78
2023/06/13 11:50:51;;;;;;;3.10;2.50;;;24.20;99.90;;;;;;5098480;28;20875;-78
2023/06/13 11:53:18;;;;;;;2.83;2.50;;;24.10;99.90;;;;;;5096121;28;20807;-78
2023/06/13 11:55:45;;;;;;;3.20;2.90;;;23.90;99.90;;;;;;5103290;28;20657;-78
2023/06/13 11:58:11;;;;;;;5.13;3.37;;;23.90;99.90;;;;;;5091936;28;20564;-78
2023/06/13 12:00:53;;;;;;;3.07;2.83;;;24.00;99.90;;;;;;5093533;28;20987;-78
2023/06/13 12:03:23;;;;;;;3.80;3.40;;;24.00;99.90;;;;;;5105016;28;20526;-78
2023/06/13 12:05:50;;;;;;;2.90;2.50;;;24.20;99.00;;;;;;5107272;28;20444;-76
2023/06/13 12:08:16;;;;;;;2.63;2.43;;;24.30;99.60;;;;;;5095402;28;20432;-77
2023/06/13 12:10:47;;;;;;;5.30;3.47;;;24.20;99.90;;;;;;5102504;28;20469;-78
2023/06/13 12:13:20;;;;;;;4.03;3.60;;;24.10;99.90;;;;;;5102532;28;20841;-78
2023/06/13 12:15:46;;;;;;;2.70;2.50;;;24.30;99.90;;;;;;5098300;28;20961;-78
2023/06/13 12:18:12;;;;;;;3.30;2.80;;;24.30;99.90;;;;;;5109751;28;20500;-78
2023/06/13 12:20:49;;;;;;;3.10;2.80;;;24.30;99.90;;;;;;5103399;28;20207;-78
2023/06/13 12:23:15;;;;;;;4.87;3.17;;;24.20;99.90;;;;;;5103513;28;20276;-76
2023/06/13 12:28:19;;;;;;;3.27;2.77;;;24.30;99.90;;;;;;5366417;22;20524;-90
2023/06/13 12:30:49;;;;;;;7.60;2.80;;;24.40;98.40;;;;;;5046787;28;20461;-94
2023/06/13 12:33:19;;;;;;;2.50;2.30;;;24.50;96.50;;;;;;5052584;28;20483;-92
2023/06/13 12:36:05;;;;;;;2.70;2.50;;;24.50;99.30;;;;;;5042580;28;20816;-92
2023/06/13 12:38:31;;;;;;;4.60;2.53;;;24.40;99.90;;;;;;5042184;28;20535;-92
2023/06/13 12:40:58;;;;;;;3.80;2.97;;;24.60;98.90;;;;;;5045328;28;20437;-95
2023/06/13 12:43:30;;;;;;;5.43;2.80;;;24.70;99.90;;;;;;5033713;28;20975;-93
2023/06/13 12:45:57;;;;;;;3.00;2.37;;;24.80;96.20;;;;;;5050026;28;20958;-94
2023/06/13 12:48:24;;;;;;;4.23;2.80;;;24.90;97.00;;;;;;5032975;28;20456;-96
2023/06/13 12:50:50;;;;;;;3.00;2.57;;;24.90;94.90;;;;;;5046577;28;20474;-92
2023/06/13 12:53:21;;;;;;;3.20;2.57;;;25.00;94.40;;;;;;5063975;28;20458;-96